createdAt,value
2024-05-09T00:00:54.588Z,761.00
2024-05-09T00:01:54.793Z,760.00
2024-05-09T00:02:54.640Z,758.00
2024-05-09T00:03:54.801Z,758.00
2024-05-09T00:04:54.838Z,758.00
2024-05-09T00:05:54.794Z,759.00
2024-05-09T00:06:54.853Z,759.00
2024-05-09T00:07:54.978Z,763.00
2024-05-09T00:08:54.980Z,764.00
2024-05-09T00:09:54.976Z,763.00
2024-05-09T00:10:55.105Z,762.00
2024-05-09T00:11:55.206Z,764.00
2024-05-09T00:12:55.160Z,765.00
2024-05-09T00:13:55.215Z,766.00
2024-05-09T00:14:55.253Z,766.00
2024-05-09T00:15:55.270Z,764.00
2024-05-09T00:16:55.457Z,762.00
2024-05-09T00:17:55.549Z,763.00
2024-05-09T00:18:55.530Z,762.00
2024-05-09T00:19:55.485Z,761.00
2024-05-09T00:20:55.538Z,764.00
2024-05-09T00:21:55.631Z,763.00
2024-05-09T00:22:55.629Z,762.00
2024-05-09T00:23:55.672Z,760.00
2024-05-09T00:24:55.721Z,763.00
2024-05-09T00:25:55.862Z,763.00
2024-05-09T00:26:55.856Z,763.00
2024-05-09T00:27:55.896Z,762.00
2024-05-09T00:28:55.943Z,763.00
2024-05-09T00:29:55.981Z,761.00
2024-05-09T00:30:56.072Z,761.00
2024-05-09T00:31:56.173Z,760.00
2024-05-09T00:32:56.296Z,758.00
2024-05-09T00:33:56.471Z,756.00
2024-05-09T00:34:56.288Z,757.00
2024-05-09T00:35:56.301Z,759.00
2024-05-09T00:36:56.371Z,809.00
2024-05-09T00:37:56.451Z,844.00
2024-05-09T00:38:56.447Z,925.00
2024-05-09T00:39:56.492Z,928.00
2024-05-09T00:40:56.597Z,888.00
2024-05-09T00:41:56.624Z,857.00
2024-05-09T00:42:56.625Z,846.00
2024-05-09T00:43:56.714Z,844.00
2024-05-09T00:44:56.793Z,838.00
2024-05-09T00:45:56.775Z,833.00
2024-05-09T00:46:56.907Z,829.00
2024-05-09T00:47:57.090Z,829.00
2024-05-09T00:48:57.077Z,825.00
2024-05-09T00:49:57.012Z,826.00
2024-05-09T00:50:57.041Z,821.00
2024-05-09T00:51:57.251Z,818.00
2024-05-09T00:52:57.233Z,819.00
2024-05-09T00:53:57.210Z,823.00
2024-05-09T00:54:57.219Z,822.00
2024-05-09T00:55:57.297Z,819.00
2024-05-09T00:56:57.343Z,818.00
2024-05-09T00:57:57.368Z,819.00
2024-05-09T00:58:57.523Z,816.00
2024-05-09T00:59:57.480Z,815.00
2024-05-09T01:00:57.681Z,813.00
2024-05-09T01:01:57.761Z,809.00
2024-05-09T01:02:57.780Z,807.00
2024-05-09T01:03:57.833Z,804.00
2024-05-09T01:04:57.797Z,805.00
2024-05-09T01:05:57.828Z,803.00
2024-05-09T01:06:57.870Z,805.00
2024-05-09T01:07:57.924Z,805.00
2024-05-09T01:08:57.966Z,802.00
2024-05-09T01:09:57.988Z,801.00
2024-05-09T01:10:58.201Z,802.00
2024-05-09T01:11:58.220Z,802.00
2024-05-09T01:12:58.171Z,803.00
2024-05-09T01:13:58.271Z,806.00
2024-05-09T01:14:58.235Z,806.00
2024-05-09T01:15:58.291Z,805.00
2024-05-09T01:16:58.406Z,809.00
2024-05-09T01:17:58.558Z,808.00
2024-05-09T01:18:58.565Z,805.00
2024-05-09T01:19:58.506Z,805.00
2024-05-09T01:20:58.570Z,806.00
2024-05-09T01:21:58.612Z,807.00
2024-05-09T01:22:58.667Z,809.00
2024-05-09T01:23:58.674Z,812.00
2024-05-09T01:24:58.727Z,809.00
2024-05-09T01:25:58.878Z,808.00
2024-05-09T01:26:58.883Z,808.00
2024-05-09T01:27:58.876Z,806.00
2024-05-09T01:28:58.950Z,805.00
2024-05-09T01:29:58.981Z,803.00
2024-05-09T01:30:59.044Z,803.00
2024-05-09T01:31:59.502Z,803.00
2024-05-09T01:32:59.347Z,805.00
2024-05-09T01:33:59.258Z,805.00
2024-05-09T01:34:59.264Z,804.00
2024-05-09T01:35:59.297Z,803.00
2024-05-09T01:36:59.384Z,802.00
2024-05-09T01:37:59.457Z,799.00
2024-05-09T01:38:59.421Z,798.00
2024-05-09T01:39:59.478Z,796.00
2024-05-09T01:40:59.610Z,795.00
2024-05-09T01:41:59.616Z,794.00
2024-05-09T01:42:59.648Z,794.00
2024-05-09T01:43:59.744Z,795.00
2024-05-09T01:44:59.767Z,797.00
2024-05-09T01:45:59.791Z,798.00
2024-05-09T01:46:59.904Z,797.00
2024-05-09T01:48:00.257Z,794.00
2024-05-09T01:49:00.040Z,793.00
2024-05-09T01:50:00.032Z,791.00
2024-05-09T01:51:00.055Z,790.00
2024-05-09T01:52:00.125Z,789.00
2024-05-09T01:53:00.137Z,791.00
2024-05-09T01:54:00.192Z,790.00
2024-05-09T01:55:03.438Z,788.00
2024-05-09T01:56:01.282Z,791.00
2024-05-09T01:57:00.266Z,792.00
2024-05-09T01:58:00.230Z,794.00
2024-05-09T01:59:00.261Z,796.00
2024-05-09T02:00:00.247Z,798.00
2024-05-09T02:01:00.216Z,798.00
2024-05-09T02:02:00.319Z,798.00
2024-05-09T02:03:00.378Z,797.00
2024-05-09T02:04:00.421Z,793.00
2024-05-09T02:05:00.474Z,794.00
2024-05-09T02:06:00.152Z,792.00
2024-05-09T02:07:00.170Z,790.00
2024-05-09T02:08:00.129Z,787.00
2024-05-09T02:09:00.146Z,786.00
2024-05-09T02:10:00.190Z,786.00
2024-05-09T02:11:00.300Z,784.00
2024-05-09T02:12:00.178Z,782.00
2024-05-09T02:13:00.097Z,782.00
2024-05-09T02:14:00.299Z,780.00
2024-05-09T02:15:00.151Z,782.00
2024-05-09T02:16:00.051Z,780.00
2024-05-09T02:17:00.131Z,779.00
2024-05-09T02:18:00.197Z,778.00
2024-05-09T02:19:00.152Z,776.00
2024-05-09T02:20:00.101Z,778.00
2024-05-09T02:21:00.277Z,779.00
2024-05-09T02:22:00.053Z,778.00
2024-05-09T02:23:00.011Z,779.00
2024-05-09T02:23:59.989Z,780.00
2024-05-09T02:25:00.028Z,776.00
2024-05-09T02:26:00.057Z,775.00
2024-05-09T02:27:00.019Z,777.00
2024-05-09T02:28:00.086Z,779.00
2024-05-09T02:28:59.996Z,780.00
2024-05-09T02:29:59.931Z,778.00
2024-05-09T02:30:59.908Z,780.00
2024-05-09T02:32:00.091Z,780.00
2024-05-09T02:33:00.102Z,774.00
2024-05-09T02:34:00.030Z,774.00
2024-05-09T02:34:59.972Z,774.00
2024-05-09T02:35:59.883Z,774.00
2024-05-09T02:37:00.034Z,773.00
2024-05-09T02:38:00.081Z,777.00
2024-05-09T02:38:59.904Z,776.00
2024-05-09T02:39:59.867Z,777.00
2024-05-09T02:40:59.908Z,776.00
2024-05-09T02:41:59.853Z,775.00
2024-05-09T02:42:59.812Z,774.00
2024-05-09T02:43:59.881Z,772.00
2024-05-09T02:44:59.857Z,770.00
2024-05-09T02:45:59.781Z,768.00
2024-05-09T02:46:59.794Z,766.00
2024-05-09T02:48:00.203Z,767.00
2024-05-09T02:48:59.798Z,770.00
2024-05-09T02:49:59.791Z,771.00
2024-05-09T02:50:59.853Z,771.00
2024-05-09T02:51:59.766Z,773.00
2024-05-09T02:52:59.759Z,773.00
2024-05-09T02:53:59.699Z,771.00
2024-05-09T02:54:59.747Z,773.00
2024-05-09T02:55:59.699Z,774.00
2024-05-09T02:56:59.823Z,773.00
2024-05-09T02:57:59.764Z,775.00
2024-05-09T02:58:59.734Z,775.00
2024-05-09T02:59:59.656Z,772.00
2024-05-09T03:00:59.689Z,773.00
2024-05-09T03:01:59.771Z,773.00
2024-05-09T03:02:59.923Z,770.00
2024-05-09T03:03:59.839Z,768.00
2024-05-09T03:04:59.688Z,767.00
2024-05-09T03:05:59.608Z,766.00
2024-05-09T03:06:59.623Z,764.00
2024-05-09T03:07:59.635Z,764.00
2024-05-09T03:08:59.730Z,766.00
2024-05-09T03:09:59.601Z,765.00
2024-05-09T03:10:59.610Z,766.00
2024-05-09T03:11:59.687Z,767.00
2024-05-09T03:12:59.538Z,770.00
2024-05-09T03:13:59.586Z,771.00
2024-05-09T03:14:59.606Z,772.00
2024-05-09T03:15:59.546Z,775.00
2024-05-09T03:16:59.612Z,776.00
2024-05-09T03:17:59.960Z,772.00
2024-05-09T03:18:59.679Z,770.00
2024-05-09T03:19:59.487Z,766.00
2024-05-09T03:20:59.596Z,765.00
2024-05-09T03:21:59.515Z,763.00
2024-05-09T03:22:59.504Z,763.00
2024-05-09T03:23:59.430Z,762.00
2024-05-09T03:24:59.543Z,762.00
2024-05-09T03:25:59.504Z,758.00
2024-05-09T03:26:59.465Z,757.00
2024-05-09T03:27:59.587Z,756.00
2024-05-09T03:28:59.444Z,754.00
2024-05-09T03:29:59.384Z,754.00
2024-05-09T03:30:59.384Z,755.00
2024-05-09T03:31:59.524Z,752.00
2024-05-09T03:32:59.661Z,753.00
2024-05-09T03:33:59.552Z,753.00
2024-05-09T03:34:59.519Z,751.00
2024-05-09T03:35:59.337Z,752.00
2024-05-09T03:36:59.326Z,748.00
2024-05-09T03:37:59.430Z,750.00
2024-05-09T03:38:59.376Z,752.00
2024-05-09T03:39:59.302Z,751.00
2024-05-09T03:40:59.369Z,752.00
2024-05-09T03:41:59.321Z,750.00
2024-05-09T03:42:59.269Z,753.00
2024-05-09T03:43:59.311Z,754.00
2024-05-09T03:44:59.340Z,757.00
2024-05-09T03:45:59.320Z,759.00
2024-05-09T03:46:59.339Z,761.00
2024-05-09T03:47:59.479Z,760.00
2024-05-09T03:48:59.310Z,761.00
2024-05-09T03:49:59.283Z,763.00
2024-05-09T03:50:59.312Z,762.00
2024-05-09T03:51:59.220Z,759.00
2024-05-09T03:52:59.256Z,759.00
2024-05-09T03:53:59.169Z,756.00
2024-05-09T03:54:59.207Z,756.00
2024-05-09T03:55:59.296Z,755.00
2024-05-09T03:56:59.184Z,755.00
2024-05-09T03:57:59.504Z,755.00
2024-05-09T03:58:59.185Z,752.00
2024-05-09T03:59:59.137Z,752.00
2024-05-09T04:00:59.250Z,751.00
2024-05-09T04:01:59.297Z,750.00
2024-05-09T04:02:59.258Z,747.00
2024-05-09T04:03:59.134Z,745.00
2024-05-09T04:04:59.168Z,746.00
2024-05-09T04:05:59.074Z,747.00
2024-05-09T04:06:59.087Z,744.00
2024-05-09T04:07:59.130Z,747.00
2024-05-09T04:08:59.094Z,750.00
2024-05-09T04:09:59.029Z,751.00
2024-05-09T04:10:59.102Z,753.00
2024-05-09T04:11:59.167Z,754.00
2024-05-09T04:12:59.027Z,757.00
2024-05-09T04:13:59.021Z,757.00
2024-05-09T04:14:59.095Z,757.00
2024-05-09T04:15:58.999Z,756.00
2024-05-09T04:16:58.997Z,760.00
2024-05-09T04:17:59.218Z,761.00
2024-05-09T04:18:59.060Z,763.00
2024-05-09T04:19:58.995Z,763.00
2024-05-09T04:20:59.119Z,764.00
2024-05-09T04:21:58.924Z,762.00
2024-05-09T04:22:58.986Z,762.00
2024-05-09T04:23:58.937Z,763.00
2024-05-09T04:24:58.899Z,762.00
2024-05-09T04:25:58.951Z,761.00
2024-05-09T04:26:58.949Z,761.00
2024-05-09T04:27:58.867Z,758.00
2024-05-09T04:28:58.914Z,758.00
2024-05-09T04:29:58.871Z,757.00
2024-05-09T04:30:58.903Z,761.00
2024-05-09T04:31:59.040Z,760.00
2024-05-09T04:32:59.018Z,761.00
2024-05-09T04:33:58.934Z,762.00
2024-05-09T04:34:58.880Z,761.00
2024-05-09T04:35:58.807Z,758.00
2024-05-09T04:36:58.794Z,756.00
2024-05-09T04:37:58.787Z,757.00
2024-05-09T04:38:58.886Z,753.00
2024-05-09T04:39:58.775Z,753.00
2024-05-09T04:40:58.886Z,752.00
2024-05-09T04:41:58.766Z,752.00
2024-05-09T04:42:58.755Z,750.00
2024-05-09T04:43:58.798Z,752.00
2024-05-09T04:44:58.926Z,755.00
2024-05-09T04:45:58.707Z,753.00
2024-05-09T04:46:58.817Z,753.00
2024-05-09T04:47:59.226Z,749.00
2024-05-09T04:48:58.759Z,750.00
2024-05-09T04:49:58.729Z,749.00
2024-05-09T04:50:58.765Z,749.00
2024-05-09T04:51:58.712Z,749.00
2024-05-09T04:52:58.686Z,751.00
2024-05-09T04:53:58.644Z,747.00
2024-05-09T04:54:59.110Z,749.00
2024-05-09T04:55:58.658Z,747.00
2024-05-09T04:56:58.660Z,746.00
2024-05-09T04:57:58.619Z,746.00
2024-05-09T04:58:58.683Z,742.00
2024-05-09T04:59:58.607Z,744.00
2024-05-09T05:00:58.616Z,745.00
2024-05-09T05:01:58.676Z,745.00
2024-05-09T05:02:58.722Z,744.00
2024-05-09T05:03:58.816Z,742.00
2024-05-09T05:04:58.810Z,744.00
2024-05-09T05:05:58.641Z,745.00
2024-05-09T05:07:01.251Z,747.00
2024-05-09T05:07:58.584Z,745.00
2024-05-09T05:08:58.561Z,747.00
2024-05-09T05:09:58.519Z,747.00
2024-05-09T05:10:58.631Z,745.00
2024-05-09T05:11:58.573Z,743.00
2024-05-09T05:12:58.500Z,742.00
2024-05-09T05:13:58.526Z,747.00
2024-05-09T05:14:58.498Z,745.00
2024-05-09T05:15:58.797Z,748.00
2024-05-09T05:16:58.507Z,747.00
2024-05-09T05:17:58.581Z,749.00
2024-05-09T05:18:58.520Z,749.00
2024-05-09T05:19:58.479Z,749.00
2024-05-09T05:20:58.753Z,750.00
2024-05-09T05:21:58.413Z,749.00
2024-05-09T05:22:58.402Z,747.00
2024-05-09T05:23:58.395Z,747.00
2024-05-09T05:24:58.426Z,748.00
2024-05-09T05:25:58.396Z,746.00
2024-05-09T05:26:58.403Z,745.00
2024-05-09T05:27:58.348Z,743.00
2024-05-09T05:28:58.369Z,744.00
2024-05-09T05:29:58.326Z,742.00
2024-05-09T05:30:58.359Z,743.00
2024-05-09T05:31:58.420Z,743.00
2024-05-09T05:32:58.736Z,744.00
2024-05-09T05:33:58.331Z,742.00
2024-05-09T05:34:58.306Z,742.00
2024-05-09T05:35:58.289Z,741.00
2024-05-09T05:36:58.307Z,742.00
2024-05-09T05:37:58.301Z,743.00
2024-05-09T05:38:58.485Z,742.00
2024-05-09T05:39:58.259Z,741.00
2024-05-09T05:40:58.300Z,740.00
2024-05-09T05:41:58.240Z,739.00
2024-05-09T05:42:58.214Z,743.00
2024-05-09T05:43:58.291Z,746.00
2024-05-09T05:44:58.255Z,746.00
2024-05-09T05:45:58.196Z,746.00
2024-05-09T05:46:58.263Z,745.00
2024-05-09T05:47:58.383Z,744.00
2024-05-09T05:48:58.247Z,744.00
2024-05-09T05:49:58.220Z,744.00
2024-05-09T05:51:00.430Z,832.00
2024-05-09T05:51:58.135Z,829.00
2024-05-09T05:52:58.147Z,900.00
2024-05-09T05:53:58.249Z,931.00
2024-05-09T05:54:58.115Z,946.00
2024-05-09T05:55:58.159Z,955.00
2024-05-09T05:56:58.115Z,1033.00
2024-05-09T05:57:58.082Z,1038.00
2024-05-09T05:58:58.167Z,1049.00
2024-05-09T05:59:58.050Z,1053.00
2024-05-09T06:00:58.106Z,1060.00
2024-05-09T06:01:58.117Z,1071.00
2024-05-09T06:02:58.128Z,1077.00
2024-05-09T06:03:58.177Z,1088.00
2024-05-09T06:04:58.111Z,1111.00
2024-05-09T06:05:58.097Z,1490.00
2024-05-09T06:06:58.000Z,1771.00
2024-05-09T06:07:58.094Z,1687.00
2024-05-09T06:08:58.075Z,1674.00
2024-05-09T06:09:57.983Z,1636.00
2024-05-09T06:10:58.072Z,1766.00
2024-05-09T06:11:58.115Z,1745.00
2024-05-09T06:12:57.955Z,1602.00
2024-05-09T06:13:58.002Z,1594.00
2024-05-09T06:14:57.993Z,1637.00
2024-05-09T06:15:57.924Z,1618.00
2024-05-09T06:16:58.393Z,1595.00
2024-05-09T06:17:58.136Z,1531.00
2024-05-09T06:18:58.063Z,1496.00
2024-05-09T06:19:57.896Z,1407.00
2024-05-09T06:20:58.155Z,1385.00
2024-05-09T06:21:57.893Z,1372.00
2024-05-09T06:22:57.895Z,1367.00
2024-05-09T06:23:57.867Z,1370.00
2024-05-09T06:24:57.862Z,1365.00
2024-05-09T06:25:57.902Z,1364.00
2024-05-09T06:26:57.940Z,1360.00
2024-05-09T06:27:57.826Z,1362.00
2024-05-09T06:28:57.892Z,1358.00
2024-05-09T06:29:57.796Z,1359.00
2024-05-09T06:30:57.830Z,1359.00
2024-05-09T06:32:00.139Z,1355.00
2024-05-09T06:32:58.081Z,1345.00
2024-05-09T06:33:58.058Z,1337.00
2024-05-09T06:34:57.985Z,1331.00
2024-05-09T06:35:57.864Z,1327.00
2024-05-09T06:36:57.857Z,1329.00
2024-05-09T06:37:57.864Z,1399.00
2024-05-09T06:38:57.928Z,1447.00
2024-05-09T06:39:57.944Z,1501.00
2024-05-09T06:40:58.059Z,1531.00
2024-05-09T06:41:58.098Z,1539.00
2024-05-09T06:42:58.083Z,1519.00
2024-05-09T06:43:58.217Z,1480.00
2024-05-09T06:44:58.198Z,1481.00
2024-05-09T06:45:58.250Z,1475.00
2024-05-09T06:46:59.854Z,1458.00
2024-05-09T06:47:58.483Z,1417.00
2024-05-09T06:48:58.509Z,1402.00
2024-05-09T06:49:58.300Z,1397.00
2024-05-09T06:50:58.262Z,1394.00
2024-05-09T06:51:58.278Z,1387.00
2024-05-09T06:52:58.399Z,1374.00
2024-05-09T06:53:58.370Z,1379.00
2024-05-09T06:54:58.389Z,1381.00
2024-05-09T06:55:58.499Z,1381.00
2024-05-09T06:56:58.504Z,1378.00
2024-05-09T06:57:58.557Z,1377.00
2024-05-09T06:58:58.668Z,1373.00
2024-05-09T06:59:58.733Z,1372.00
2024-05-09T07:00:58.702Z,1361.00
2024-05-09T07:01:58.801Z,1349.00
2024-05-09T07:03:01.675Z,1340.00
2024-05-09T07:03:58.866Z,1329.00
2024-05-09T07:04:58.919Z,1318.00
2024-05-09T07:05:58.890Z,1317.00
2024-05-09T07:06:58.810Z,1313.00
2024-05-09T07:07:58.765Z,1313.00
2024-05-09T07:08:58.774Z,1306.00
2024-05-09T07:09:58.770Z,1296.00
2024-05-09T07:10:58.780Z,1293.00
2024-05-09T07:11:58.798Z,1290.00
2024-05-09T07:12:58.705Z,1289.00
2024-05-09T07:13:58.742Z,1286.00
2024-05-09T07:14:58.707Z,1284.00
2024-05-09T07:15:58.710Z,1280.00
2024-05-09T07:16:58.796Z,1274.00
2024-05-09T07:17:58.821Z,1268.00
2024-05-09T07:18:58.791Z,1264.00
2024-05-09T07:19:58.853Z,1263.00
2024-05-09T07:20:58.651Z,1263.00
2024-05-09T07:21:58.646Z,1258.00
2024-05-09T07:22:58.700Z,1250.00
2024-05-09T07:23:58.659Z,1246.00
2024-05-09T07:24:58.622Z,1245.00
2024-05-09T07:25:58.604Z,1244.00
2024-05-09T07:26:58.580Z,1243.00
2024-05-09T07:27:58.709Z,1241.00
2024-05-09T07:28:58.618Z,1240.00
2024-05-09T07:29:58.588Z,1233.00
2024-05-09T07:30:58.618Z,1230.00
2024-05-09T07:31:58.587Z,1229.00
2024-05-09T07:32:58.867Z,1227.00
2024-05-09T07:33:58.612Z,1222.00
2024-05-09T07:34:58.561Z,1221.00
2024-05-09T07:35:58.490Z,1218.00
2024-05-09T07:36:58.498Z,1220.00
2024-05-09T07:37:58.666Z,1220.00
2024-05-09T07:38:58.483Z,1217.00
2024-05-09T07:39:58.596Z,1216.00
2024-05-09T07:40:58.509Z,1215.00
2024-05-09T07:41:58.454Z,1217.00
2024-05-09T07:42:58.463Z,1214.00
2024-05-09T07:43:58.447Z,1210.00
2024-05-09T07:45:14.739Z,1209.00
2024-05-09T07:46:23.407Z,1204.00
2024-05-09T07:49:44.362Z,1203.00
2024-05-09T07:51:47.595Z,1197.00
2024-05-09T07:53:00.962Z,1199.00
2024-05-09T07:53:22.079Z,1198.00
2024-05-09T07:54:00.698Z,1200.00
2024-05-09T07:54:58.759Z,1201.00
2024-05-09T07:55:58.575Z,1203.00
2024-05-09T07:56:58.404Z,1200.00
2024-05-09T07:57:58.508Z,1198.00
2024-05-09T07:58:58.293Z,1192.00
2024-05-09T07:59:58.276Z,1189.00
2024-05-09T08:00:58.408Z,1186.00
2024-05-09T08:01:58.342Z,1184.00
2024-05-09T08:02:58.378Z,1184.00
2024-05-09T08:03:58.658Z,1183.00
2024-05-09T08:04:58.347Z,1183.00
2024-05-09T08:05:58.247Z,1181.00
2024-05-09T08:06:58.274Z,1178.00
2024-05-09T08:07:58.220Z,1176.00
2024-05-09T08:09:02.821Z,1177.00
2024-05-09T08:09:59.269Z,1173.00
2024-05-09T08:10:58.201Z,1174.00
2024-05-09T08:11:58.237Z,1177.00
2024-05-09T08:12:58.228Z,1173.00
2024-05-09T08:13:58.163Z,1175.00
2024-05-09T08:14:58.153Z,1175.00
2024-05-09T08:15:58.249Z,1175.00
2024-05-09T08:16:58.220Z,1179.00
2024-05-09T08:17:58.275Z,1175.00
2024-05-09T08:18:58.310Z,1174.00
2024-05-09T08:19:58.112Z,1171.00
2024-05-09T08:20:58.108Z,1169.00
2024-05-09T08:21:58.160Z,1169.00
2024-05-09T08:22:58.089Z,1169.00
2024-05-09T08:23:58.078Z,1170.00
2024-05-09T08:24:58.132Z,1165.00
2024-05-09T08:25:58.081Z,1163.00
2024-05-09T08:26:58.063Z,1161.00
2024-05-09T08:27:58.110Z,1159.00
2024-05-09T08:28:58.037Z,1158.00
2024-05-09T08:29:58.133Z,1157.00
2024-05-09T08:30:58.156Z,1157.00
2024-05-09T08:31:58.070Z,1153.00
2024-05-09T08:32:58.080Z,1154.00
2024-05-09T08:33:58.178Z,1153.00
2024-05-09T08:34:58.002Z,1153.00
2024-05-09T08:35:57.971Z,1150.00
2024-05-09T08:37:01.775Z,1152.00
2024-05-09T08:37:59.111Z,1150.00
2024-05-09T08:38:57.939Z,1149.00
2024-05-09T08:39:58.075Z,1149.00
2024-05-09T08:40:57.921Z,1147.00
2024-05-09T08:41:57.911Z,1143.00
2024-05-09T08:42:58.017Z,1143.00
2024-05-09T08:43:57.919Z,1146.00
2024-05-09T08:44:57.927Z,1147.00
2024-05-09T08:45:58.109Z,1150.00
2024-05-09T08:46:57.885Z,1152.00
2024-05-09T08:47:58.032Z,1151.00
2024-05-09T08:48:57.973Z,1150.00
2024-05-09T08:49:57.930Z,1148.00
2024-05-09T08:50:57.840Z,1146.00
2024-05-09T08:51:57.870Z,1145.00
2024-05-09T08:52:57.831Z,1141.00
2024-05-09T08:53:57.794Z,1140.00
2024-05-09T08:54:57.837Z,1140.00
2024-05-09T08:55:57.796Z,1139.00
2024-05-09T08:56:57.793Z,1143.00
2024-05-09T08:57:57.862Z,1139.00
2024-05-09T08:58:57.762Z,1140.00
2024-05-09T08:59:57.774Z,1140.00
2024-05-09T09:00:57.946Z,1141.00
2024-05-09T09:01:57.838Z,1140.00
2024-05-09T09:02:57.764Z,1142.00
2024-05-09T09:03:57.854Z,1142.00
2024-05-09T09:04:57.801Z,1140.00
2024-05-09T09:05:57.711Z,1141.00
2024-05-09T09:06:58.759Z,1139.00
2024-05-09T09:07:57.692Z,1137.00
2024-05-09T09:08:57.727Z,1135.00
2024-05-09T09:09:57.754Z,1132.00
2024-05-09T09:10:57.676Z,1131.00
2024-05-09T09:11:57.700Z,1130.00
2024-05-09T09:12:57.639Z,1126.00
2024-05-09T09:13:57.677Z,1125.00
2024-05-09T09:14:57.643Z,1125.00
2024-05-09T09:15:58.050Z,1126.00
2024-05-09T09:16:57.704Z,1124.00
2024-05-09T09:17:57.855Z,1124.00
2024-05-09T09:18:58.042Z,1122.00
2024-05-09T09:19:57.701Z,1122.00
2024-05-09T09:20:57.563Z,1121.00
2024-05-09T09:21:57.642Z,1126.00
2024-05-09T09:22:57.552Z,1129.00
2024-05-09T09:23:57.550Z,1127.00
2024-05-09T09:24:57.632Z,1126.00
2024-05-09T09:25:57.522Z,1123.00
2024-05-09T09:26:57.559Z,1129.00
2024-05-09T09:27:57.655Z,1132.00
2024-05-09T09:28:57.492Z,1129.00
2024-05-09T09:29:57.565Z,1130.00
2024-05-09T09:30:57.506Z,1126.00
2024-05-09T09:31:57.525Z,1126.00
2024-05-09T09:32:57.808Z,1125.00
2024-05-09T09:33:57.950Z,1127.00
2024-05-09T09:34:57.711Z,1127.00
2024-05-09T09:35:57.726Z,1123.00
2024-05-09T09:36:57.800Z,1118.00
2024-05-09T09:37:57.844Z,1116.00
2024-05-09T09:38:57.916Z,1112.00
2024-05-09T09:39:57.960Z,1111.00
2024-05-09T09:40:58.019Z,1111.00
2024-05-09T09:41:58.017Z,1112.00
2024-05-09T09:42:58.199Z,1113.00
2024-05-09T09:43:58.120Z,1112.00
2024-05-09T09:45:04.615Z,1111.00
2024-05-09T09:45:59.199Z,1114.00
2024-05-09T09:46:58.221Z,1113.00
2024-05-09T09:47:58.272Z,1115.00
2024-05-09T09:48:58.307Z,1115.00
2024-05-09T09:49:58.128Z,1113.00
2024-05-09T09:50:58.119Z,1115.00
2024-05-09T09:51:58.131Z,1116.00
2024-05-09T09:52:58.095Z,1118.00
2024-05-09T09:53:58.146Z,1118.00
2024-05-09T09:54:58.115Z,1114.00
2024-05-09T09:55:58.075Z,1113.00
2024-05-09T09:56:58.066Z,1113.00
2024-05-09T09:57:58.164Z,1109.00
2024-05-09T09:58:58.079Z,1110.00
2024-05-09T09:59:58.076Z,1113.00
2024-05-09T10:00:58.149Z,1112.00
2024-05-09T10:01:58.194Z,1111.00
2024-05-09T10:02:58.066Z,1116.00
2024-05-09T10:03:58.162Z,1113.00
2024-05-09T10:04:58.108Z,1111.00
2024-05-09T10:05:58.165Z,1111.00
2024-05-09T10:06:58.027Z,1111.00
2024-05-09T10:07:58.049Z,1110.00
2024-05-09T10:08:58.062Z,1113.00
2024-05-09T10:09:57.974Z,1113.00
2024-05-09T10:10:58.096Z,1114.00
2024-05-09T10:12:00.130Z,1111.00
2024-05-09T10:12:57.995Z,1111.00
2024-05-09T10:13:57.978Z,1105.00
2024-05-09T10:14:57.928Z,1107.00
2024-05-09T10:15:58.058Z,1108.00
2024-05-09T10:16:57.894Z,1108.00
2024-05-09T10:17:58.020Z,1107.00
2024-05-09T10:18:58.262Z,1102.00
2024-05-09T10:19:58.007Z,1100.00
2024-05-09T10:20:58.177Z,1098.00
2024-05-09T10:21:57.901Z,1102.00
2024-05-09T10:22:57.884Z,1104.00
2024-05-09T10:23:57.869Z,1104.00
2024-05-09T10:24:57.878Z,1106.00
2024-05-09T10:25:57.825Z,1110.00
2024-05-09T10:26:57.803Z,1111.00
2024-05-09T10:27:57.886Z,1111.00
2024-05-09T10:28:57.793Z,1118.00
2024-05-09T10:29:57.847Z,1123.00
2024-05-09T10:30:57.797Z,1123.00
2024-05-09T10:31:57.754Z,1126.00
2024-05-09T10:32:57.825Z,1127.00
2024-05-09T10:33:57.986Z,1127.00
2024-05-09T10:34:57.914Z,1130.00
2024-05-09T10:35:57.748Z,1134.00
2024-05-09T10:36:57.780Z,1136.00
2024-05-09T10:37:57.699Z,1141.00
2024-05-09T10:38:57.680Z,1143.00
2024-05-09T10:39:57.702Z,1148.00
2024-05-09T10:40:57.672Z,1143.00
2024-05-09T10:41:57.836Z,1142.00
2024-05-09T10:42:57.759Z,1133.00
2024-05-09T10:43:57.664Z,1131.00
2024-05-09T10:44:57.695Z,1140.00
2024-05-09T10:45:57.704Z,1155.00
2024-05-09T10:46:57.655Z,1169.00
2024-05-09T10:47:57.844Z,1179.00
2024-05-09T10:48:57.885Z,1186.00
2024-05-09T10:49:57.636Z,1190.00
2024-05-09T10:50:57.583Z,1195.00
2024-05-09T10:51:57.701Z,1193.00
2024-05-09T10:52:57.574Z,1196.00
2024-05-09T10:53:57.600Z,1196.00
2024-05-09T10:54:57.567Z,1197.00
2024-05-09T10:55:57.561Z,1203.00
2024-05-09T10:56:57.536Z,1203.00
2024-05-09T10:57:57.621Z,1204.00
2024-05-09T10:58:57.632Z,1199.00
2024-05-09T10:59:57.524Z,1193.00
2024-05-09T11:00:57.622Z,1193.00
2024-05-09T11:01:57.549Z,1193.00
2024-05-09T11:02:57.590Z,1193.00
2024-05-09T11:03:57.723Z,1192.00
2024-05-09T11:04:57.560Z,1196.00
2024-05-09T11:05:57.617Z,1195.00
2024-05-09T11:06:57.593Z,1194.00
2024-05-09T11:07:57.466Z,1191.00
2024-05-09T11:08:57.445Z,1191.00
2024-05-09T11:09:57.496Z,1188.00
2024-05-09T11:10:57.446Z,1187.00
2024-05-09T11:11:57.503Z,1185.00
2024-05-09T11:12:57.432Z,1182.00
2024-05-09T11:13:57.384Z,1184.00
2024-05-09T11:14:57.387Z,1184.00
2024-05-09T11:15:57.400Z,1185.00
2024-05-09T11:16:57.351Z,1182.00
2024-05-09T11:17:57.469Z,1181.00
2024-05-09T11:18:57.891Z,1181.00
2024-05-09T11:19:57.461Z,1179.00
2024-05-09T11:20:57.326Z,1175.00
2024-05-09T11:21:57.352Z,1176.00
2024-05-09T11:22:57.293Z,1177.00
2024-05-09T11:23:57.311Z,1175.00
2024-05-09T11:24:57.332Z,1173.00
2024-05-09T11:25:57.279Z,1177.00
2024-05-09T11:26:57.260Z,1175.00
2024-05-09T11:27:57.365Z,1167.00
2024-05-09T11:28:57.250Z,1165.00
2024-05-09T11:29:57.374Z,1164.00
2024-05-09T11:30:57.263Z,1163.00
2024-05-09T11:31:57.325Z,1162.00
2024-05-09T11:32:57.348Z,1165.00
2024-05-09T11:33:57.389Z,1161.00
2024-05-09T11:34:57.195Z,1160.00
2024-05-09T11:35:57.230Z,1161.00
2024-05-09T11:36:57.230Z,1165.00
2024-05-09T11:37:57.172Z,1164.00
2024-05-09T11:38:57.163Z,1164.00
2024-05-09T11:39:57.218Z,1166.00
2024-05-09T11:40:57.173Z,1161.00
2024-05-09T11:41:57.169Z,1158.00
2024-05-09T11:42:57.242Z,1160.00
2024-05-09T11:43:57.124Z,1160.00
2024-05-09T11:44:57.115Z,1160.00
2024-05-09T11:45:57.249Z,1158.00
2024-05-09T11:46:57.096Z,1156.00
2024-05-09T11:47:57.187Z,1157.00
2024-05-09T11:48:57.235Z,1158.00
2024-05-09T11:49:57.219Z,1158.00
2024-05-09T11:50:57.120Z,1156.00
2024-05-09T11:51:57.099Z,1152.00
2024-05-09T11:52:57.074Z,1148.00
2024-05-09T11:53:57.123Z,1149.00
2024-05-09T11:54:57.086Z,1149.00
2024-05-09T11:55:56.988Z,1147.00
2024-05-09T11:56:57.023Z,1148.00
2024-05-09T11:57:57.086Z,1145.00
2024-05-09T11:58:57.062Z,1144.00
2024-05-09T11:59:57.068Z,1144.00
2024-05-09T12:00:57.080Z,1145.00
2024-05-09T12:01:57.018Z,1144.00
2024-05-09T12:02:56.990Z,1143.00
2024-05-09T12:03:57.185Z,1140.00
2024-05-09T12:04:56.999Z,1138.00
2024-05-09T12:05:57.139Z,1138.00
2024-05-09T12:06:57.022Z,1136.00
2024-05-09T12:07:56.954Z,1136.00
2024-05-09T12:08:56.900Z,1136.00
2024-05-09T12:09:56.911Z,1133.00
2024-05-09T12:10:57.373Z,1134.00
2024-05-09T12:11:56.928Z,1133.00
2024-05-09T12:12:56.912Z,1131.00
2024-05-09T12:13:56.879Z,1127.00
2024-05-09T12:14:56.818Z,1130.00
2024-05-09T12:15:56.879Z,1131.00
2024-05-09T12:16:56.913Z,1129.00
2024-05-09T12:17:59.089Z,1130.00
2024-05-09T12:18:56.884Z,1130.00
2024-05-09T12:19:56.781Z,1132.00